Time;durP1;ratioP1;P1;durP2;ratioP2;P2;SDS_P1;SDS_P2;PMS_P1;PMS_P2;Temp;Humidity;BMP_temperature;BMP_pressure;BME280_temperature;BME280_humidity;BME280_pressure;Samples;Min_cycle;Max_cycle;Signal;HPM_P1;HPM_P2
2024/01/06 00:00:49;;;;;;;2.20;0.40;;;7.40;99.90;;;;;;5038279;23;20210;-94
2024/01/06 00:03:27;;;;;;;2.08;0.43;;;7.40;99.90;;;;;;5062159;23;20142;-94
2024/01/06 00:05:41;;;;;;;1.70;0.52;;;7.40;99.90;;;;;;5026671;23;20649;-96
2024/01/06 00:08:45;;;;;;;0.35;0.10;;;7.60;99.90;;;;;;5052762;23;20241;-96
2024/01/06 00:11:20;;;;;;;0.50;0.30;;;7.70;99.90;;;;;;5036620;23;20202;-95
2024/01/06 00:14:11;;;;;;;;;;;;;;;;;;;;;
2024/01/06 00:16:58;;;;;;;;;;;;;;;;;;;;;
2024/01/06 00:22:09;;;;;;;16.93;1.00;;;7.80;99.90;;;;;;5016132;23;20159;-95
2024/01/06 00:25:18;;;;;;;0.60;0.30;;;7.70;99.90;;;;;;5054890;23;20210;-95
2024/01/06 00:28:04;;;;;;;1.52;0.65;;;7.50;99.90;;;;;;5026018;23;20179;-96
2024/01/06 00:30:18;;;;;;;1.60;0.40;;;7.40;99.90;;;;;;4987711;23;20504;-96
2024/01/06 00:32:39;;;;;;;3.10;1.07;;;7.60;99.90;;;;;;5004720;23;20160;-96
2024/01/06 00:35:45;;;;;;;;;;;;;;;;;;;;;
2024/01/06 00:38:35;;;;;;;0.63;0.50;;;7.50;99.90;;;;;;5052981;23;20187;-96
2024/01/06 00:50:42;;;;;;;;;;;;;;;;;;;;;
2024/01/06 00:53:55;;;;;;;;;;;;;;;;;;;;;
2024/01/06 01:00:22;;;;;;;;;;;;;;;;;;;;;
2024/01/06 01:02:52;;;;;;;0.87;0.50;;;7.90;99.90;;;;;;4935181;23;20754;-95
2024/01/06 01:05:54;;;;;;;;;;;;;;;;;;;;;
2024/01/06 01:12:21;;;;;;;2.05;0.57;;;7.90;99.90;;;;;;5006110;23;20201;-95
2024/01/06 01:18:47;;;;;;;;;;;;;;;;;;;;;
2024/01/06 01:21:55;;;;;;;;;;;;;;;;;;;;;
2024/01/06 01:24:56;;;;;;;0.35;0.20;;;8.00;99.90;;;;;;4920977;24;20149;-96
2024/01/06 01:27:56;;;;;;;1.77;0.30;;;8.00;99.90;;;;;;4923471;23;20168;-96
2024/01/06 01:33:43;;;;;;;0.25;0.25;;;7.90;99.90;;;;;;5011297;23;20162;-96
2024/01/06 01:36:52;;;;;;;;;;;;;;;;;;;;;
2024/01/06 01:39:53;;;;;;;1.17;0.30;;;7.70;99.90;;;;;;5026549;23;20158;-95
2024/01/06 01:42:17;;;;;;;;;;;;;;;;;;;;;
2024/01/06 01:45:03;;;;;;;3.88;0.43;;;7.90;99.90;;;;;;5025459;23;20150;-95
2024/01/06 01:47:12;;;;;;;3.13;0.40;;;7.70;99.90;;;;;;5021074;23;20178;-96
2024/01/06 01:49:28;;;;;;;;;;;;;;;;;;;;;
2024/01/06 01:51:34;;;;;;;1.38;0.10;;;7.90;99.90;;;;;;5049130;23;20173;-94
2024/01/06 01:53:47;;;;;;;0.75;0.30;;;7.90;99.90;;;;;;5003066;23;20250;-96
2024/01/06 01:56:01;;;;;;;;;;;;;;;;;;;;;
2024/01/06 01:58:31;;;;;;;;;;;;;;;;;;;;;
2024/01/06 02:00:38;;;;;;;3.00;0.68;;;7.90;99.90;;;;;;5024759;23;20191;-94
2024/01/06 02:03:03;;;;;;;3.50;0.10;;;7.90;99.90;;;;;;4999470;23;20152;-96
2024/01/06 02:05:26;;;;;;;7.23;0.83;;;7.70;99.90;;;;;;5026586;23;20642;-95
2024/01/06 02:07:52;;;;;;;1.08;0.45;;;7.60;99.90;;;;;;5004803;23;20201;-96
2024/01/06 02:10:27;;;;;;;6.13;0.50;;;7.60;99.90;;;;;;5026677;23;20155;-95
2024/01/06 02:12:36;;;;;;;2.58;0.85;;;7.50;99.90;;;;;;5049017;23;20189;-96
2024/01/06 02:15:05;;;;;;;2.13;0.30;;;7.40;99.90;;;;;;5048301;23;20285;-95
2024/01/06 02:17:39;;;;;;;1.15;0.40;;;7.50;99.90;;;;;;5046940;23;20193;-94
2024/01/06 02:19:53;;;;;;;3.10;0.60;;;7.60;99.90;;;;;;5000720;23;20195;-95
2024/01/06 02:22:05;;;;;;;0.50;0.35;;;7.60;99.90;;;;;;5047072;23;20155;-95
2024/01/06 02:24:14;;;;;;;1.10;0.50;;;7.70;99.90;;;;;;5045880;23;20154;-95
2024/01/06 02:26:16;;;;;;;0.20;0.15;;;7.60;99.90;;;;;;4998725;23;20163;-95
2024/01/06 02:28:22;;;;;;;2.63;0.65;;;7.50;99.90;;;;;;5003651;23;20156;-95
2024/01/06 02:30:31;;;;;;;1.40;0.47;;;7.50;99.90;;;;;;5001589;23;20167;-96
2024/01/06 02:32:32;;;;;;;1.05;0.40;;;7.40;99.90;;;;;;5048922;23;20163;-95
2024/01/06 02:34:43;;;;;;;3.88;0.93;;;7.70;99.90;;;;;;5027302;23;20587;-95
2024/01/06 02:36:55;;;;;;;0.93;0.50;;;7.70;99.90;;;;;;4999881;23;20188;-96
2024/01/06 02:39:27;;;;;;;3.38;0.77;;;7.70;99.90;;;;;;5002801;23;20156;-96
2024/01/06 02:41:34;;;;;;;0.32;0.20;;;7.70;99.90;;;;;;5022418;23;20155;-95
2024/01/06 02:43:43;;;;;;;0.85;0.57;;;7.90;99.90;;;;;;5022811;23;20147;-94
2024/01/06 02:45:44;;;;;;;2.08;0.38;;;7.90;99.90;;;;;;5049553;23;20154;-96
2024/01/06 02:47:45;;;;;;;0.50;0.30;;;8.00;99.90;;;;;;5000882;23;20202;-94
2024/01/06 02:50:09;;;;;;;0.40;0.30;;;8.00;99.90;;;;;;5023475;23;20155;-95
2024/01/06 02:52:10;;;;;;;0.95;0.35;;;7.90;99.90;;;;;;5021890;23;20598;-95
2024/01/06 02:54:15;;;;;;;1.90;0.30;;;8.00;99.90;;;;;;5024103;23;20155;-94
2024/01/06 02:56:38;;;;;;;0.95;0.32;;;8.20;99.90;;;;;;5023038;23;20182;-93
2024/01/06 02:58:50;;;;;;;0.65;0.40;;;8.20;99.90;;;;;;5027596;23;20147;-95
2024/01/06 03:00:53;;;;;;;3.27;0.50;;;8.20;99.90;;;;;;5023363;23;20158;-95
2024/01/06 03:02:56;;;;;;;2.28;0.52;;;8.20;99.90;;;;;;5025543;23;20169;-94
2024/01/06 03:04:57;;;;;;;0.63;0.50;;;8.20;99.90;;;;;;5021789;23;20167;-95
2024/01/06 03:07:00;;;;;;;0.77;0.38;;;8.20;99.90;;;;;;4999200;23;20180;-95
2024/01/06 03:09:02;;;;;;;0.38;0.25;;;8.20;99.90;;;;;;5022376;23;20158;-93
2024/01/06 03:11:06;;;;;;;0.20;0.13;;;7.80;99.90;;;;;;4998692;23;20183;-95
2024/01/06 03:13:07;;;;;;;0.40;0.30;;;7.60;99.90;;;;;;5027020;23;20166;-94
2024/01/06 03:15:08;;;;;;;0.38;0.22;;;7.40;99.90;;;;;;5022986;23;20178;-94
2024/01/06 03:17:10;;;;;;;0.28;0.22;;;7.50;99.90;;;;;;5000098;23;20706;-94
2024/01/06 03:19:16;;;;;;;4.68;0.40;;;7.60;99.90;;;;;;4999375;23;20194;-95
2024/01/06 03:21:20;;;;;;;0.30;0.30;;;7.70;99.90;;;;;;5003327;23;20159;-94
2024/01/06 03:23:21;;;;;;;0.65;0.50;;;7.60;99.90;;;;;;4997717;23;20160;-94
2024/01/06 03:25:25;;;;;;;0.55;0.30;;;7.50;99.90;;;;;;4999410;23;20159;-93
2024/01/06 03:27:26;;;;;;;1.52;0.77;;;7.50;99.90;;;;;;5021990;23;20206;-95
2024/01/06 03:29:30;;;;;;;0.80;0.40;;;7.40;99.90;;;;;;5025093;23;20582;-94
2024/01/06 03:31:34;;;;;;;2.20;0.32;;;7.30;99.90;;;;;;5000649;23;20164;-94
2024/01/06 03:33:35;;;;;;;1.45;0.47;;;7.30;99.90;;;;;;4999220;23;20247;-95
2024/01/06 03:35:36;;;;;;;0.70;0.40;;;7.20;99.90;;;;;;5021847;23;20155;-94
2024/01/06 03:37:37;;;;;;;1.05;0.57;;;7.30;99.90;;;;;;4998076;23;20631;-94
2024/01/06 03:39:41;;;;;;;5.50;1.08;;;7.40;99.90;;;;;;5021241;23;20199;-96
2024/01/06 03:41:41;;;;;;;1.70;0.80;;;7.50;99.90;;;;;;5021961;23;20147;-94
2024/01/06 03:43:49;;;;;;;0.93;0.43;;;7.60;99.90;;;;;;5022547;23;20159;-93
2024/01/06 03:45:59;;;;;;;2.00;0.57;;;7.70;99.90;;;;;;5023353;23;20155;-95
2024/01/06 03:48:03;;;;;;;0.20;0.20;;;7.60;99.90;;;;;;5022428;23;20613;-94
2024/01/06 03:50:12;;;;;;;1.08;0.65;;;7.60;99.90;;;;;;5023069;23;20154;-95
2024/01/06 03:52:24;;;;;;;0.65;0.30;;;7.40;99.90;;;;;;4999877;23;20573;-96
2024/01/06 03:54:28;;;;;;;0.57;0.32;;;7.60;99.90;;;;;;4998928;23;20148;-95
2024/01/06 03:56:31;;;;;;;0.47;0.40;;;7.40;99.90;;;;;;5022065;23;20183;-95
2024/01/06 03:58:38;;;;;;;1.15;0.50;;;7.40;99.90;;;;;;5024589;23;20184;-96
2024/01/06 04:00:39;;;;;;;1.38;0.50;;;7.40;99.90;;;;;;5001115;23;20263;-96
2024/01/06 04:02:42;;;;;;;0.93;0.52;;;7.50;99.90;;;;;;5021737;23;20154;-95
2024/01/06 04:04:55;;;;;;;0.77;0.35;;;7.50;99.90;;;;;;4999304;23;20172;-95
2024/01/06 04:07:27;;;;;;;1.25;0.82;;;7.60;99.90;;;;;;5026948;23;20159;-95
2024/01/06 04:09:39;;;;;;;1.23;0.60;;;7.70;99.90;;;;;;5023992;23;20159;-94
2024/01/06 04:11:58;;;;;;;1.67;0.77;;;7.80;99.90;;;;;;4999527;23;20167;-95
2024/01/06 04:14:43;;;;;;;1.10;0.57;;;7.90;99.90;;;;;;5045288;23;20176;-94
2024/01/06 04:20:14;;;;;;;;;;;;;;;;;;;;;
2024/01/06 04:26:50;;;;;;;;;;;;;;;;;;;;;
2024/01/06 04:32:24;;;;;;;4.13;1.30;;;8.30;99.90;;;;;;4991656;23;20328;-96
2024/01/06 04:47:30;;;;;;;2.35;0.73;;;7.70;99.90;;;;;;4952180;24;20184;-96
2024/01/06 04:50:55;;;;;;;2.20;0.98;;;7.70;99.90;;;;;;4945872;24;20157;-96
2024/01/06 05:02:48;;;;;;;1.27;0.70;;;8.20;99.90;;;;;;5037483;23;20170;-95
2024/01/06 05:05:12;;;;;;;1.58;1.13;;;8.10;99.90;;;;;;5023171;23;20158;-95
2024/01/06 05:07:38;;;;;;;;;;;;;;;;;;;;;
2024/01/06 05:10:02;;;;;;;2.75;0.80;;;8.10;99.90;;;;;;5025250;23;20158;-94
2024/01/06 05:12:18;;;;;;;4.70;1.17;;;7.90;99.90;;;;;;5025330;23;20162;-94
2024/01/06 05:14:58;;;;;;;4.35;1.08;;;7.80;99.90;;;;;;5026686;23;20158;-95
2024/01/06 05:17:19;;;;;;;;;;;;;;;;;;;;;
2024/01/06 05:19:35;;;;;;;2.38;1.10;;;7.60;99.90;;;;;;5048700;23;20178;-95
2024/01/06 05:27:21;;;;;;;3.38;1.45;;;7.50;99.90;;;;;;5048867;23;20254;-96
2024/01/06 05:29:35;;;;;;;2.15;1.00;;;7.60;99.90;;;;;;5025077;23;20152;-95
2024/01/06 05:35:00;;;;;;;3.80;1.20;;;7.70;99.90;;;;;;5028625;23;20154;-95
2024/01/06 05:37:42;;;;;;;2.28;1.38;;;7.70;99.90;;;;;;5001820;23;20180;-96
2024/01/06 05:43:17;;;;;;;4.35;1.35;;;7.30;99.90;;;;;;5039954;23;20184;-95
2024/01/06 05:48:55;;;;;;;5.93;0.98;;;7.40;99.90;;;;;;5044923;23;20158;-94
2024/01/06 05:54:45;;;;;;;2.22;1.40;;;7.50;99.90;;;;;;5000281;23;20655;-95
2024/01/06 06:07:20;;;;;;;2.33;1.45;;;7.80;99.90;;;;;;4990485;23;20199;-96
2024/01/06 06:09:39;;;;;;;2.10;1.05;;;8.00;99.90;;;;;;4953445;23;20247;-96
2024/01/06 06:12:03;;;;;;;1.52;1.00;;;8.00;99.90;;;;;;4976479;23;20160;-95
2024/01/06 06:14:29;;;;;;;;;;;;;;;;;;;;;
2024/01/06 06:17:03;;;;;;;2.28;1.10;;;8.30;99.90;;;;;;5050159;23;20621;-95
2024/01/06 06:19:32;;;;;;;;;;;;;;;;;;;;;
2024/01/06 06:21:59;;;;;;;3.70;1.17;;;8.10;99.90;;;;;;5023230;23;20666;-96
2024/01/06 06:24:08;;;;;;;5.53;1.48;;;8.20;99.90;;;;;;5024309;23;20155;-94
2024/01/06 06:26:36;;;;;;;3.42;1.17;;;8.50;99.90;;;;;;5000435;23;20152;-95
2024/01/06 06:28:46;;;;;;;3.25;1.48;;;8.30;99.90;;;;;;5000954;23;20152;-95
2024/01/06 06:31:03;;;;;;;1.25;1.00;;;8.20;99.90;;;;;;5001891;23;20476;-95
2024/01/06 06:33:22;;;;;;;;;;;;;;;;;;;;;
2024/01/06 06:36:16;;;;;;;;;;;;;;;;;;;;;
2024/01/06 06:38:41;;;;;;;3.08;1.20;;;8.20;99.90;;;;;;5035682;23;20221;-95
2024/01/06 06:41:25;;;;;;;8.63;1.17;;;8.10;99.90;;;;;;5002257;23;20199;-95
2024/01/06 06:47:04;;;;;;;2.38;1.40;;;8.00;99.90;;;;;;5034920;23;20233;-95
2024/01/06 06:49:21;;;;;;;2.67;1.40;;;8.30;99.90;;;;;;5025438;23;20492;-95
2024/01/06 06:51:25;;;;;;;8.00;1.77;;;9.00;99.90;;;;;;5023097;23;20155;-94
2024/01/06 06:53:25;;;;;;;2.57;1.47;;;9.00;99.90;;;;;;5024624;23;20218;-92
2024/01/06 06:55:27;;;;;;;3.07;1.73;;;8.60;99.90;;;;;;5022259;23;20155;-94
2024/01/06 06:57:28;;;;;;;2.93;1.77;;;8.20;99.90;;;;;;5045335;23;20260;-94
2024/01/06 06:59:29;;;;;;;3.17;1.57;;;8.10;99.90;;;;;;4997747;23;20183;-94
2024/01/06 07:01:30;;;;;;;2.37;1.43;;;7.90;99.90;;;;;;5023501;23;20165;-93
2024/01/06 07:03:31;;;;;;;5.50;1.77;;;7.60;99.90;;;;;;5022713;23;20162;-94
2024/01/06 07:05:32;;;;;;;1.87;1.33;;;7.50;99.90;;;;;;4998890;23;20171;-95
2024/01/06 07:07:33;;;;;;;2.90;1.43;;;7.50;99.90;;;;;;4998718;23;20657;-94
2024/01/06 07:09:34;;;;;;;3.07;1.73;;;7.60;99.90;;;;;;5023750;23;20521;-94
2024/01/06 07:11:35;;;;;;;3.57;1.57;;;7.60;99.90;;;;;;5001273;23;20159;-94
2024/01/06 07:13:36;;;;;;;2.57;1.17;;;7.60;99.90;;;;;;5000827;23;20158;-95
2024/01/06 07:15:37;;;;;;;4.40;1.80;;;7.40;99.90;;;;;;4998562;23;20160;-93
2024/01/06 07:17:38;;;;;;;3.17;1.87;;;7.30;99.90;;;;;;4998225;23;20182;-94
2024/01/06 07:19:39;;;;;;;5.13;1.73;;;7.20;99.90;;;;;;5022336;23;20182;-95
2024/01/06 07:21:40;;;;;;;5.37;1.83;;;7.20;99.90;;;;;;5023667;23;20206;-95
2024/01/06 07:23:42;;;;;;;4.97;1.27;;;7.20;99.90;;;;;;5023019;23;20158;-95
2024/01/06 07:25:43;;;;;;;9.17;1.80;;;7.20;99.90;;;;;;5022480;23;20547;-94
2024/01/06 07:27:44;;;;;;;4.13;2.00;;;7.10;99.90;;;;;;5001291;23;20179;-94
2024/01/06 07:29:45;;;;;;;5.27;2.07;;;7.10;99.90;;;;;;5023311;23;20155;-94
2024/01/06 07:31:59;;;;;;;4.20;1.63;;;7.30;99.90;;;;;;5022567;23;20166;-95
2024/01/06 07:34:12;;;;;;;3.80;1.97;;;7.30;99.90;;;;;;5023234;23;20166;-95
2024/01/06 07:36:38;;;;;;;4.47;1.50;;;7.20;99.90;;;;;;5023622;23;20151;-94
2024/01/06 07:38:44;;;;;;;3.47;1.83;;;7.30;99.90;;;;;;5023869;23;20230;-95
2024/01/06 07:40:50;;;;;;;6.47;1.97;;;7.60;99.90;;;;;;5023189;23;20301;-94
2024/01/06 07:43:11;;;;;;;4.77;1.93;;;7.70;99.90;;;;;;5024634;23;20155;-94
2024/01/06 07:45:20;;;;;;;7.03;2.57;;;7.70;99.90;;;;;;5049242;23;20150;-94
2024/01/06 07:47:27;;;;;;;6.00;2.00;;;7.80;99.90;;;;;;5024633;23;20563;-94
2024/01/06 07:49:54;;;;;;;;;;;;;;;;;;;;;
2024/01/06 07:52:57;;;;;;;;;;;;;;;;;;;;;
2024/01/06 08:02:00;;;;;;;4.77;2.40;;;7.90;99.90;;;;;;5008835;23;20174;-94
2024/01/06 08:04:39;;;;;;;5.00;2.20;;;8.10;99.90;;;;;;5022597;23;20235;-95
2024/01/06 08:11:31;;;;;;;;;;;;;;;;;;;;;
2024/01/06 08:17:23;;;;;;;7.47;3.17;;;7.30;99.90;;;;;;5039680;23;20186;-95
2024/01/06 08:20:42;;;;;;;;;;;;;;;;;;;;;
2024/01/06 08:22:49;;;;;;;8.33;3.20;;;7.70;99.90;;;;;;5024661;23;20186;-96
2024/01/06 08:24:50;;;;;;;7.60;2.50;;;8.20;99.90;;;;;;5024545;23;20161;-94
2024/01/06 08:26:51;;;;;;;4.13;2.20;;;8.10;99.90;;;;;;5024088;23;20179;-94
2024/01/06 08:28:54;;;;;;;3.87;1.90;;;8.00;99.90;;;;;;5000562;23;20186;-94
2024/01/06 08:30:57;;;;;;;6.80;2.50;;;7.90;99.90;;;;;;4998920;23;20148;-93
2024/01/06 08:32:59;;;;;;;6.33;2.33;;;7.70;99.90;;;;;;5022182;23;20151;-94
2024/01/06 08:35:00;;;;;;;10.17;2.57;;;7.60;99.90;;;;;;5022981;23;20159;-94
2024/01/06 08:37:01;;;;;;;5.13;2.63;;;7.60;99.90;;;;;;4999832;23;20197;-93
2024/01/06 08:39:08;;;;;;;5.93;3.13;;;7.40;99.90;;;;;;5000396;23;20156;-93
2024/01/06 08:41:09;;;;;;;4.23;2.33;;;7.10;99.90;;;;;;5022208;23;20241;-95
2024/01/06 08:43:10;;;;;;;6.63;2.30;;;7.10;99.90;;;;;;5021694;23;20226;-93
2024/01/06 08:45:10;;;;;;;11.43;2.00;;;7.10;99.90;;;;;;4997829;23;20158;-93
2024/01/06 08:47:11;;;;;;;5.77;2.23;;;7.00;99.90;;;;;;4998867;23;20194;-93
2024/01/06 08:49:14;;;;;;;8.10;2.07;;;7.00;99.90;;;;;;5021600;23;20178;-94
2024/01/06 08:51:17;;;;;;;3.10;1.73;;;7.00;99.90;;;;;;5048309;23;20265;-95
2024/01/06 08:53:18;;;;;;;5.13;1.90;;;7.00;99.90;;;;;;5023052;23;20182;-94
2024/01/06 08:55:19;;;;;;;4.70;2.13;;;6.80;99.90;;;;;;5021206;23;20158;-94
2024/01/06 08:57:20;;;;;;;5.50;2.10;;;6.60;99.90;;;;;;5024417;23;20170;-95
2024/01/06 08:59:24;;;;;;;15.30;1.97;;;6.70;99.90;;;;;;4999181;23;20546;-94
2024/01/06 09:01:31;;;;;;;3.23;1.70;;;6.70;99.90;;;;;;5047013;23;20239;-94
2024/01/06 09:03:32;;;;;;;2.97;1.80;;;6.70;99.90;;;;;;5048920;23;20237;-94
2024/01/06 09:05:36;;;;;;;4.27;1.70;;;6.70;99.90;;;;;;5025259;23;20163;-93
2024/01/06 09:07:37;;;;;;;6.67;2.47;;;6.60;99.90;;;;;;5000740;23;20262;-94
2024/01/06 09:09:38;;;;;;;3.57;2.13;;;6.60;99.90;;;;;;5023882;23;20163;-94
2024/01/06 09:11:39;;;;;;;4.63;1.53;;;6.70;99.90;;;;;;5024045;23;20162;-95
2024/01/06 09:13:40;;;;;;;4.00;2.03;;;6.50;99.90;;;;;;5000544;23;20166;-94
2024/01/06 09:15:41;;;;;;;4.27;2.00;;;6.60;99.90;;;;;;5023964;23;20155;-93
2024/01/06 09:17:41;;;;;;;2.43;1.50;;;6.60;99.90;;;;;;5023230;23;20170;-94
2024/01/06 09:19:43;;;;;;;5.17;1.57;;;6.60;99.90;;;;;;4999640;23;20187;-95
2024/01/06 09:21:44;;;;;;;2.53;1.70;;;6.60;99.90;;;;;;5001155;23;20152;-93
2024/01/06 09:23:45;;;;;;;2.93;1.73;;;6.60;99.90;;;;;;5002789;23;20165;-93
2024/01/06 09:25:49;;;;;;;9.87;1.47;;;6.70;99.90;;;;;;5003367;23;20148;-92
2024/01/06 09:27:55;;;;;;;3.07;1.50;;;6.70;99.90;;;;;;5000184;23;20306;-94
2024/01/06 09:29:56;;;;;;;3.03;1.50;;;6.60;99.90;;;;;;5049995;23;20150;-95
2024/01/06 09:31:57;;;;;;;5.07;2.57;;;6.60;99.90;;;;;;5003359;23;20166;-93
2024/01/06 09:34:04;;;;;;;5.80;2.60;;;6.80;99.90;;;;;;5002445;23;20155;-94
2024/01/06 09:36:05;;;;;;;4.43;1.73;;;6.80;99.90;;;;;;5048729;23;20155;-95
2024/01/06 09:38:07;;;;;;;4.30;2.00;;;6.70;99.90;;;;;;5049291;23;20150;-95
2024/01/06 09:40:15;;;;;;;2.47;1.33;;;6.70;99.90;;;;;;5027009;23;20238;-92
2024/01/06 09:42:17;;;;;;;4.40;1.80;;;6.50;99.90;;;;;;5049589;23;20150;-93
2024/01/06 09:44:18;;;;;;;4.23;1.83;;;6.60;99.90;;;;;;5023523;23;20207;-93
2024/01/06 09:46:26;;;;;;;1.70;0.87;;;6.60;99.90;;;;;;5001644;23;20163;-93
2024/01/06 09:48:35;;;;;;;4.23;2.23;;;6.60;99.90;;;;;;5001900;23;20152;-93
2024/01/06 09:50:36;;;;;;;6.10;2.93;;;6.70;99.90;;;;;;5002051;23;20249;-93
2024/01/06 09:53:19;;;;;;;8.40;2.27;;;6.80;99.90;;;;;;5000977;23;20175;-96
2024/01/06 09:55:36;;;;;;;5.50;2.47;;;6.80;99.90;;;;;;5000032;23;20143;-94
2024/01/06 09:57:48;;;;;;;4.13;1.70;;;6.60;99.90;;;;;;5060098;23;20174;-95
2024/01/06 09:59:49;;;;;;;7.23;2.60;;;6.40;99.90;;;;;;5028179;23;20199;-93
2024/01/06 10:01:52;;;;;;;5.03;2.13;;;6.50;99.90;;;;;;5033296;23;20178;-94
2024/01/06 10:03:56;;;;;;;3.50;1.83;;;6.50;99.90;;;;;;5009698;23;20160;-95
2024/01/06 10:15:02;;;;;;;3.17;1.83;;;6.40;99.90;;;;;;5074940;23;20197;-94
2024/01/06 10:17:07;;;;;;;3.03;1.37;;;6.30;99.90;;;;;;5068422;23;20170;-94
2024/01/06 10:19:11;;;;;;;5.97;1.83;;;6.30;99.90;;;;;;5046585;23;20158;-93
2024/01/06 10:21:13;;;;;;;3.57;1.60;;;6.30;99.90;;;;;;5045849;23;20158;-93
2024/01/06 10:23:16;;;;;;;2.83;1.47;;;6.40;99.90;;;;;;5046144;23;20185;-93
2024/01/06 10:25:20;;;;;;;4.87;1.80;;;6.40;99.90;;;;;;5045680;23;20153;-93
2024/01/06 10:27:28;;;;;;;2.90;1.67;;;6.50;99.90;;;;;;5046629;23;20506;-93
2024/01/06 10:29:29;;;;;;;3.70;2.07;;;6.30;99.90;;;;;;5045278;23;20229;-93
2024/01/06 10:31:30;;;;;;;3.60;1.77;;;6.30;99.90;;;;;;5045389;23;20150;-92
2024/01/06 10:33:33;;;;;;;3.43;1.80;;;6.40;99.90;;;;;;5045749;23;20146;-93
2024/01/06 10:35:35;;;;;;;5.03;1.90;;;6.30;99.90;;;;;;5044880;23;20212;-92
2024/01/06 10:37:37;;;;;;;2.30;1.37;;;6.30;99.90;;;;;;5045209;23;20182;-94
2024/01/06 10:39:38;;;;;;;3.90;1.60;;;6.50;99.90;;;;;;5044890;23;20270;-94
2024/01/06 10:41:43;;;;;;;4.17;1.67;;;6.60;99.90;;;;;;5045458;23;20154;-93
2024/01/06 10:43:44;;;;;;;3.57;1.87;;;6.60;99.90;;;;;;5046305;23;20573;-95
2024/01/06 10:45:45;;;;;;;3.47;2.00;;;6.50;99.90;;;;;;5045545;23;20161;-93
2024/01/06 10:47:48;;;;;;;5.70;2.13;;;6.50;99.90;;;;;;5045300;23;20218;-94
2024/01/06 10:49:54;;;;;;;4.13;1.97;;;6.40;99.90;;;;;;5069813;23;20671;-94
2024/01/06 10:51:58;;;;;;;3.40;1.73;;;6.40;99.90;;;;;;5045523;23;20176;-94
2024/01/06 10:54:05;;;;;;;5.33;2.13;;;6.40;99.90;;;;;;5069868;23;20205;-94
2024/01/06 10:56:12;;;;;;;4.83;2.37;;;6.40;99.90;;;;;;5069996;23;20191;-94
2024/01/06 10:58:20;;;;;;;5.83;2.30;;;6.60;99.90;;;;;;5070144;23;20148;-93
2024/01/06 11:00:21;;;;;;;4.90;2.30;;;6.50;99.90;;;;;;5045785;23;20196;-93
2024/01/06 11:02:25;;;;;;;8.17;2.73;;;6.50;99.90;;;;;;5069487;23;20204;-94
2024/01/06 11:04:26;;;;;;;2.07;1.33;;;6.50;99.90;;;;;;5045126;23;20154;-93
2024/01/06 11:06:28;;;;;;;11.60;2.80;;;6.40;99.90;;;;;;5044968;23;20201;-94
2024/01/06 11:08:30;;;;;;;5.03;2.20;;;6.20;99.90;;;;;;5069620;23;20156;-92
2024/01/06 11:10:32;;;;;;;8.17;3.27;;;6.10;99.90;;;;;;5045455;23;20165;-93
2024/01/06 11:12:33;;;;;;;5.43;2.43;;;6.00;99.90;;;;;;5069556;23;20208;-94
2024/01/06 11:14:37;;;;;;;3.27;1.97;;;6.10;99.90;;;;;;5045952;23;20170;-94
2024/01/06 11:16:38;;;;;;;5.67;2.70;;;6.00;99.90;;;;;;5045640;23;20174;-93
2024/01/06 11:18:42;;;;;;;5.97;2.50;;;6.00;99.90;;;;;;5045390;23;20178;-93
2024/01/06 11:21:16;;;;;;;4.50;2.23;;;5.90;99.90;;;;;;5045412;23;20241;-94
2024/01/06 11:23:23;;;;;;;4.77;2.33;;;6.00;99.90;;;;;;5069851;23;20157;-93
2024/01/06 11:25:27;;;;;;;4.60;2.40;;;6.10;99.90;;;;;;5069583;23;20154;-94
2024/01/06 11:27:30;;;;;;;10.23;1.07;;;6.10;99.90;;;;;;5044941;23;20170;-93
2024/01/06 11:29:31;;;;;;;4.53;2.47;;;6.00;99.90;;;;;;5045196;23;20160;-93
2024/01/06 11:31:32;;;;;;;6.37;3.10;;;6.00;99.90;;;;;;5045779;23;20154;-93
2024/01/06 11:33:33;;;;;;;6.00;2.37;;;6.00;99.90;;;;;;5069112;23;20146;-93
2024/01/06 11:35:37;;;;;;;5.37;2.60;;;6.20;99.90;;;;;;5045333;23;20593;-93
2024/01/06 11:37:52;;;;;;;6.17;2.57;;;6.10;99.90;;;;;;5045342;23;20174;-93
2024/01/06 11:39:53;;;;;;;8.80;3.10;;;6.40;99.90;;;;;;5069812;23;20645;-92
2024/01/06 11:41:55;;;;;;;5.03;2.63;;;6.40;99.90;;;;;;5045020;23;20154;-93
2024/01/06 11:43:57;;;;;;;5.27;2.63;;;6.50;99.90;;;;;;5045507;23;20237;-94
2024/01/06 11:46:01;;;;;;;6.60;2.87;;;6.50;99.90;;;;;;5045083;23;20615;-95
2024/01/06 11:48:06;;;;;;;5.67;2.20;;;6.50;99.90;;;;;;5045735;23;20589;-89
2024/01/06 11:50:09;;;;;;;7.83;2.40;;;6.40;99.90;;;;;;5045748;23;20154;-90
2024/01/06 11:52:11;;;;;;;5.73;2.87;;;6.50;99.90;;;;;;5046934;23;20154;-93
2024/01/06 11:54:12;;;;;;;3.40;1.80;;;6.50;99.90;;;;;;5043878;23;20186;-93
2024/01/06 11:56:14;;;;;;;6.70;2.60;;;6.40;99.90;;;;;;5044323;23;20154;-90
2024/01/06 11:58:18;;;;;;;8.73;3.10;;;6.40;99.90;;;;;;5046765;23;20152;-90
2024/01/06 12:00:19;;;;;;;7.93;3.27;;;6.40;99.90;;;;;;5071890;23;20189;-92
2024/01/06 12:02:22;;;;;;;5.33;2.50;;;6.50;99.90;;;;;;5046354;23;20151;-92
2024/01/06 12:04:25;;;;;;;6.63;3.10;;;6.40;99.90;;;;;;5045705;23;20158;-90
2024/01/06 12:06:26;;;;;;;5.80;2.80;;;6.50;99.90;;;;;;5044556;23;20174;-91
2024/01/06 12:08:27;;;;;;;5.07;3.10;;;6.60;99.90;;;;;;5044962;23;20644;-89
2024/01/06 12:10:29;;;;;;;4.53;2.10;;;6.60;99.90;;;;;;5045275;23;20146;-96
2024/01/06 12:12:30;;;;;;;7.83;3.27;;;6.60;99.90;;;;;;5044679;23;20234;-89
2024/01/06 12:14:32;;;;;;;3.57;1.97;;;6.70;99.90;;;;;;5045945;23;20166;-93
2024/01/06 12:16:32;;;;;;;3.80;2.30;;;6.70;99.90;;;;;;5046365;23;20625;-89
2024/01/06 12:18:33;;;;;;;5.80;2.10;;;6.70;99.90;;;;;;5072651;23;20153;-94
2024/01/06 12:20:34;;;;;;;6.60;1.80;;;6.80;99.90;;;;;;5047310;23;20198;-94
2024/01/06 12:22:44;;;;;;;4.17;2.07;;;6.50;99.90;;;;;;5072429;23;20177;-93
2024/01/06 12:24:57;;;;;;;3.13;1.77;;;6.60;99.90;;;;;;5049191;23;20161;-93
2024/01/06 12:27:09;;;;;;;4.37;2.37;;;6.60;99.90;;;;;;5071387;23;20177;-94
2024/01/06 12:29:52;;;;;;;5.57;2.33;;;6.70;99.90;;;;;;5080273;23;20192;-94
2024/01/06 12:32:05;;;;;;;4.90;1.50;;;6.70;99.90;;;;;;5052953;23;20146;-92
2024/01/06 12:34:18;;;;;;;2.67;1.30;;;6.50;99.90;;;;;;5082855;23;20647;-92
2024/01/06 12:36:25;;;;;;;4.03;2.13;;;6.70;99.90;;;;;;5068291;23;20134;-93
2024/01/06 12:38:58;;;;;;;4.27;1.30;;;6.70;99.90;;;;;;5063620;23;20169;-95
2024/01/06 16:01:50;;;;;;;1.60;1.07;;;6.20;99.90;;;;;;5055991;23;20208;-90
2024/01/06 16:04:02;;;;;;;2.13;1.03;;;6.40;99.90;;;;;;5044503;23;20154;-92
2024/01/06 16:06:03;;;;;;;2.07;1.13;;;6.50;99.90;;;;;;5020641;23;20158;-95
2024/01/06 16:08:09;;;;;;;2.73;1.33;;;6.40;99.90;;;;;;5021719;23;20179;-95
2024/01/06 16:10:35;;;;;;;1.97;1.00;;;6.50;99.90;;;;;;5071729;23;20161;-95
2024/01/06 16:13:02;;;;;;;3.80;1.33;;;6.50;99.90;;;;;;5026694;23;20237;-94
2024/01/06 16:15:06;;;;;;;2.53;1.40;;;6.60;99.90;;;;;;5023172;23;20153;-94
2024/01/06 16:17:07;;;;;;;1.43;1.00;;;6.40;99.90;;;;;;5021676;23;20230;-92
2024/01/06 16:19:08;;;;;;;6.83;1.30;;;6.30;99.90;;;;;;5047660;23;20150;-94
2024/01/06 16:21:09;;;;;;;3.73;1.43;;;6.40;99.90;;;;;;5023852;23;20225;-93
2024/01/06 16:23:13;;;;;;;1.23;0.80;;;6.50;99.90;;;;;;5025430;23;20214;-90
